Time;durP1;ratioP1;P1;durP2;ratioP2;P2;SDS_P1;SDS_P2;PMS_P1;PMS_P2;Temp;Humidity;BMP_temperature;BMP_pressure;BME280_temperature;BME280_humidity;BME280_pressure;Samples;Min_cycle;Max_cycle;Signal;HPM_P1;HPM_P2
2022/04/18 00:00:02;;;;;;;3.73;3.47;;;;;;;1.19;100.00;97499.50;4949067;28;20234;-58
2022/04/18 00:02:31;;;;;;;4.20;3.80;;;;;;;1.18;100.00;97497.00;4932133;28;20234;-59
2022/04/18 00:04:59;;;;;;;4.13;3.80;;;;;;;1.09;100.00;97494.16;4949006;28;20208;-60
2022/04/18 00:07:27;;;;;;;4.10;3.50;;;;;;;1.08;100.00;97484.66;4946815;28;20388;-58
2022/04/18 00:09:55;;;;;;;3.57;3.30;;;;;;;1.07;100.00;97485.59;4915440;28;20259;-56
2022/04/18 00:12:23;;;;;;;2.87;2.67;;;;;;;0.96;100.00;97469.94;4940691;28;20306;-57
2022/04/18 00:14:52;;;;;;;3.70;2.97;;;;;;;1.05;100.00;97479.69;4949050;28;20301;-55
2022/04/18 00:17:20;;;;;;;3.43;3.17;;;;;;;1.05;100.00;97471.84;4936469;28;20329;-56
2022/04/18 00:19:48;;;;;;;3.53;3.23;;;;;;;1.07;100.00;97472.56;4944756;28;20246;-54
2022/04/18 00:22:16;;;;;;;3.33;3.13;;;;;;;1.08;100.00;97476.84;4942044;28;20538;-58
2022/04/18 00:24:44;;;;;;;2.93;2.73;;;;;;;1.07;100.00;97471.72;4910676;28;20390;-57
2022/04/18 00:27:12;;;;;;;2.67;2.47;;;;;;;1.12;100.00;97473.03;4943766;28;20238;-56
2022/04/18 00:29:40;;;;;;;3.13;2.93;;;;;;;1.12;100.00;97462.59;4946432;28;20373;-55
2022/04/18 00:32:10;;;;;;;4.10;3.70;;;;;;;1.05;100.00;97466.63;4948864;28;20211;-57
2022/04/18 00:34:38;;;;;;;3.77;3.47;;;;;;;0.97;100.00;97461.97;4935309;28;21004;-57
2022/04/18 00:37:06;;;;;;;3.50;3.20;;;;;;;0.98;100.00;97468.03;4949835;28;20790;-57
2022/04/18 00:39:35;;;;;;;3.37;3.10;;;;;;;0.95;100.00;97461.28;4947766;28;20445;-51
2022/04/18 00:42:03;;;;;;;3.63;3.17;;;;;;;0.94;100.00;97462.22;4911187;28;20219;-58
2022/04/18 00:44:31;;;;;;;3.93;3.00;;;;;;;0.87;100.00;97461.03;4942415;28;20300;-56
2022/04/18 00:46:59;;;;;;;4.40;4.00;;;;;;;0.81;100.00;97456.28;4946391;28;20509;-54
2022/04/18 00:49:29;;;;;;;3.53;3.33;;;;;;;0.78;100.00;97459.94;4931280;28;20693;-59
2022/04/18 00:51:58;;;;;;;3.70;3.40;;;;;;;0.74;100.00;97461.13;4946532;28;20239;-58
2022/04/18 00:54:26;;;;;;;4.03;3.73;;;;;;;0.75;100.00;97457.56;4942684;28;20386;-56
2022/04/18 00:56:54;;;;;;;4.50;4.13;;;;;;;0.76;100.00;97459.22;4910348;28;20357;-55
2022/04/18 00:59:23;;;;;;;19.57;12.07;;;;;;;0.75;100.00;97460.16;4946173;28;20329;-58
2022/04/18 01:01:51;;;;;;;22.27;13.07;;;;;;;0.76;100.00;97463.59;4944687;28;20293;-56
2022/04/18 01:04:19;;;;;;;9.87;6.57;;;;;;;0.76;100.00;97460.97;4934671;28;20214;-59
2022/04/18 01:06:49;;;;;;;7.20;4.20;;;;;;;0.66;100.00;97458.25;4943951;28;20458;-57
2022/04/18 01:09:17;;;;;;;4.50;3.77;;;;;;;0.67;100.00;97452.91;4948740;28;20214;-61
2022/04/18 01:11:45;;;;;;;4.27;3.77;;;;;;;0.65;100.00;97454.00;4945732;28;20405;-58
2022/04/18 01:14:13;;;;;;;4.20;3.90;;;;;;;0.59;100.00;97449.22;4909226;28;20234;-61
2022/04/18 01:16:42;;;;;;;3.80;3.53;;;;;;;0.55;100.00;97446.81;4940483;28;20400;-58
2022/04/18 01:19:10;;;;;;;3.57;3.27;;;;;;;0.51;100.00;97450.59;4944371;28;20639;-60
2022/04/18 01:21:39;;;;;;;3.87;3.53;;;;;;;0.50;100.00;97448.94;4935306;28;20301;-60
2022/04/18 01:28:58;;;;;;;4.10;3.20;;;;;;;0.51;100.00;97442.78;4943895;28;20297;-59
2022/04/18 01:29:39;;;;;;;3.93;3.70;;;;;;;0.32;100.00;97432.06;4907711;28;20484;-62
2022/04/18 01:32:48;;;;;;;3.70;3.30;;;;;;;0.31;100.00;97430.41;4933091;28;20344;-58
2022/04/18 01:35:16;;;;;;;3.70;3.40;;;;;;;0.26;100.00;97433.34;4927279;28;20237;-59
2022/04/18 01:37:45;;;;;;;4.30;3.90;;;;;;;0.23;100.00;97424.00;4949208;28;20461;-60
2022/04/18 01:40:14;;;;;;;4.43;4.13;;;;;;;0.24;100.00;97420.44;4945180;28;20250;-58
2022/04/18 01:42:42;;;;;;;4.50;3.87;;;;;;;0.27;100.00;97416.75;4948121;28;20397;-58
2022/04/18 01:45:11;;;;;;;3.87;3.53;;;;;;;0.33;100.00;97418.09;4912004;28;20220;-58
2022/04/18 01:47:39;;;;;;;6.63;3.70;;;;;;;0.26;100.00;97408.13;4944439;28;20536;-56
2022/04/18 01:50:08;;;;;;;3.40;3.20;;;;;;;0.24;100.00;97402.22;4946641;28;20805;-56
2022/04/18 01:52:36;;;;;;;3.90;3.60;;;;;;;0.21;100.00;97409.41;4935864;28;20433;-55
2022/04/18 01:55:07;;;;;;;4.30;3.90;;;;;;;0.16;100.00;97407.13;4947685;28;20730;-59
2022/04/18 01:57:36;;;;;;;3.93;3.57;;;;;;;0.14;100.00;97393.38;4945539;28;20809;-59
2022/04/18 02:00:04;;;;;;;4.57;3.73;;;;;;;0.12;100.00;97392.66;4910368;28;20237;-60
2022/04/18 02:02:33;;;;;;;3.93;3.63;;;;;;;0.10;100.00;97394.56;4943858;28;20463;-55
2022/04/18 02:05:01;;;;;;;3.67;3.37;;;;;;;0.07;100.00;97393.03;4945498;28;20634;-59
2022/04/18 02:07:29;;;;;;;3.90;3.60;;;;;;;0.05;100.00;97394.06;4927920;28;20416;-59
2022/04/18 02:09:57;;;;;;;3.60;3.30;;;;;;;0.06;100.00;97382.69;4948525;28;20265;-58
2022/04/18 02:12:27;;;;;;;5.43;4.00;;;;;;;-0.01;100.00;97385.75;4945249;28;20222;-55
2022/04/18 02:14:55;;;;;;;3.53;3.33;;;;;;;0.02;100.00;97386.47;4909511;28;20253;-60
2022/04/18 02:17:23;;;;;;;3.30;3.10;;;;;;;-0.04;100.00;97374.72;4945864;28;20739;-58
2022/04/18 02:19:52;;;;;;;3.70;3.50;;;;;;;-0.14;100.00;97379.78;4945332;28;20699;-57
2022/04/18 02:22:23;;;;;;;4.07;3.63;;;;;;;-0.04;100.00;97374.72;4933180;28;20217;-60
2022/04/18 02:24:51;;;;;;;3.67;3.47;;;;;;;0.03;100.00;97367.28;4946930;28;20320;-60
2022/04/18 02:27:19;;;;;;;3.43;3.23;;;;;;;-0.11;100.00;97371.75;4944168;28;20328;-58
2022/04/18 02:29:49;;;;;;;3.33;3.13;;;;;;;-0.19;100.00;97367.09;4947838;28;20520;-58
2022/04/18 02:35:02;;;;;;;3.57;3.37;;;;;;;-0.33;100.00;97362.88;4950411;28;20230;-60
2022/04/18 02:37:30;;;;;;;3.57;3.30;;;;;;;-0.33;100.00;97359.47;4933078;28;20549;-56
2022/04/18 02:39:59;;;;;;;4.40;3.10;;;;;;;-0.31;100.00;97357.56;4948397;28;20229;-58
2022/04/18 02:42:28;;;;;;;3.73;3.37;;;;;;;-0.47;100.00;97353.47;4945796;28;20297;-57
2022/04/18 02:44:57;;;;;;;4.73;3.40;;;;;;;-0.47;100.00;97350.84;4949845;28;20324;-61
2022/04/18 02:47:26;;;;;;;4.93;2.90;;;;;;;-0.64;100.00;97349.47;4907013;28;20237;-59
2022/04/18 02:49:54;;;;;;;3.80;3.20;;;;;;;-0.69;100.00;97348.16;4945951;28;20230;-58
2022/04/18 02:52:22;;;;;;;5.43;3.33;;;;;;;-0.70;100.00;97351.69;4928726;28;20215;-56
2022/04/18 02:54:50;;;;;;;3.57;3.37;;;;;;;-0.80;100.00;97351.50;4948923;28;20657;-60
2022/04/18 02:57:19;;;;;;;3.63;3.40;;;;;;;-0.90;100.00;97354.75;4942944;28;20213;-57
2022/04/18 02:59:47;;;;;;;3.17;2.83;;;;;;;-0.88;100.00;97350.28;4945775;28;20431;-57
2022/04/18 03:02:16;;;;;;;3.70;3.40;;;;;;;-0.98;100.00;97356.22;4907467;28;20217;-61
2022/04/18 03:04:45;;;;;;;3.60;3.30;;;;;;;-1.00;100.00;97360.69;4948347;28;20601;-60
2022/04/18 03:07:13;;;;;;;5.10;4.00;;;;;;;-1.07;100.00;97353.34;4942847;28;20570;-59
2022/04/18 03:09:41;;;;;;;3.40;3.17;;;;;;;-1.03;100.00;97352.19;4929700;28;20456;-58
2022/04/18 03:12:09;;;;;;;3.93;3.63;;;;;;;-1.12;100.00;97347.63;4947013;28;20690;-57
2022/04/18 03:14:37;;;;;;;3.50;3.27;;;;;;;-1.04;100.00;97353.13;4946653;28;20305;-57
2022/04/18 03:17:06;;;;;;;4.53;4.13;;;;;;;-1.03;100.00;97341.78;4908163;28;20770;-57
2022/04/18 03:19:35;;;;;;;2.93;2.83;;;;;;;-1.03;100.00;97338.31;4945286;28;20742;-57
2022/04/18 03:22:04;;;;;;;4.20;3.90;;;;;;;-0.94;100.00;97342.06;4949050;28;20340;-60
2022/04/18 03:24:34;;;;;;;3.90;3.60;;;;;;;-0.93;100.00;97341.97;4911731;28;20406;-58
2022/04/18 03:27:05;;;;;;;3.70;3.50;;;;;;;-0.91;100.00;97340.09;4947386;28;20230;-59
2022/04/18 03:29:33;;;;;;;4.03;3.73;;;;;;;-0.88;100.00;97334.66;4946615;28;20686;-53
2022/04/18 03:32:02;;;;;;;4.00;3.60;;;;;;;-0.83;100.00;97336.09;4915248;28;20313;-57
2022/04/18 03:34:30;;;;;;;4.77;4.37;;;;;;;-0.77;100.00;97326.06;4948641;28;20301;-61
2022/04/18 03:39:54;;;;;;;3.77;3.50;;;;;;;-0.77;100.00;97331.28;4940778;28;20257;-60
2022/04/18 03:42:31;;;;;;;4.43;4.13;;;;;;;-0.75;100.00;97323.38;4946103;28;20210;-60
2022/04/18 03:45:01;;;;;;;4.60;4.17;;;;;;;-0.76;100.00;97327.78;4944219;28;20566;-59
2022/04/18 03:47:29;;;;;;;4.43;4.03;;;;;;;-0.75;100.00;97324.22;4905875;28;20224;-59
2022/04/18 03:49:58;;;;;;;4.33;3.93;;;;;;;-0.75;100.00;97318.19;4948937;28;20329;-57
2022/04/18 03:52:28;;;;;;;4.37;4.07;;;;;;;-0.82;100.00;97316.97;4947979;28;20206;-60
2022/04/18 03:54:56;;;;;;;4.27;3.97;;;;;;;-0.85;100.00;97304.16;4936180;28;20298;-59
2022/04/18 03:57:24;;;;;;;4.50;4.10;;;;;;;-0.88;100.00;97306.06;4947774;28;20210;-59
2022/04/18 03:59:52;;;;;;;4.73;4.00;;;;;;;-0.88;100.00;97313.00;4951331;28;20920;-59
2022/04/18 04:02:21;;;;;;;4.30;3.90;;;;;;;-0.91;100.00;97303.66;4925988;28;20301;-59
2022/04/18 04:04:49;;;;;;;4.60;3.73;;;;;;;-0.90;100.00;97310.53;4940385;28;20294;-56
2022/04/18 04:07:17;;;;;;;7.13;3.97;;;;;;;-0.79;100.00;97322.75;4948592;28;20302;-57
2022/04/18 04:09:47;;;;;;;5.37;4.07;;;;;;;-0.93;100.00;97315.09;4935219;28;21796;-58
2022/04/18 04:12:15;;;;;;;3.70;3.40;;;;;;;-0.91;100.00;97313.22;4948410;28;20225;-61
2022/04/18 04:14:43;;;;;;;4.03;3.63;;;;;;;-1.04;100.00;97314.09;4945448;28;20464;-58
2022/04/18 04:17:12;;;;;;;3.70;3.40;;;;;;;-1.11;100.00;97307.69;4950347;28;20230;-58
2022/04/18 04:19:40;;;;;;;3.70;3.40;;;;;;;-1.07;100.00;97310.88;4914827;28;20230;-60
2022/04/18 04:22:08;;;;;;;3.83;3.47;;;;;;;-0.98;100.00;97297.22;4944932;28;20210;-57
2022/04/18 04:24:36;;;;;;;4.60;4.00;;;;;;;-0.99;100.00;97297.34;4935267;28;20244;-61
2022/04/18 04:27:06;;;;;;;4.23;3.63;;;;;;;-1.00;100.00;97296.50;4946645;28;20285;-57
2022/04/18 04:29:34;;;;;;;4.10;3.80;;;;;;;-1.02;100.00;97306.19;4942449;28;20350;-60
2022/04/18 04:32:03;;;;;;;3.87;3.47;;;;;;;-0.99;100.00;97310.34;4948245;28;20900;-60
2022/04/18 04:34:31;;;;;;;5.60;4.10;;;;;;;-0.99;100.00;97303.34;4911050;28;21116;-56
2022/04/18 04:36:59;;;;;;;3.40;3.10;;;;;;;-1.04;100.00;97306.31;4950728;28;20233;-61
2022/04/18 04:39:27;;;;;;;3.90;3.60;;;;;;;-0.96;100.00;97299.72;4935221;28;20222;-58
2022/04/18 04:41:55;;;;;;;6.30;5.33;;;;;;;-0.99;100.00;97305.97;4950180;28;20290;-56
2022/04/18 04:44:25;;;;;;;5.40;4.90;;;;;;;-0.99;100.00;97313.75;4946405;28;20217;-58
2022/04/18 04:46:53;;;;;;;4.50;4.00;;;;;;;-0.86;100.00;97310.31;4946462;28;20210;-58
2022/04/18 04:49:21;;;;;;;4.03;3.73;;;;;;;-0.88;100.00;97311.25;4944422;28;20310;-58
2022/04/18 04:51:49;;;;;;;4.43;4.07;;;;;;;-0.88;100.00;97308.66;4906556;28;20210;-59
2022/04/18 04:54:18;;;;;;;5.03;4.20;;;;;;;-0.82;100.00;97307.38;4945168;28;20324;-59
2022/04/18 04:56:46;;;;;;;7.97;5.90;;;;;;;-0.77;100.00;97317.47;4941415;28;20459;-58
2022/04/18 04:59:14;;;;;;;8.93;6.40;;;;;;;-0.78;100.00;97318.41;4948609;28;20224;-58
2022/04/18 05:01:43;;;;;;;6.37;4.67;;;;;;;-0.69;100.00;97317.72;4947250;28;20198;-58
2022/04/18 05:04:12;;;;;;;4.80;4.40;;;;;;;-0.63;100.00;97312.09;4952197;28;20209;-58
2022/04/18 05:06:40;;;;;;;4.80;4.40;;;;;;;-0.54;100.00;97315.81;4906182;28;20670;-55
2022/04/18 05:09:08;;;;;;;6.90;4.87;;;;;;;-0.47;100.00;97305.78;4946299;28;20224;-56
2022/04/18 05:11:36;;;;;;;4.93;4.53;;;;;;;-0.32;100.00;97309.88;4933762;28;20862;-58
2022/04/18 05:14:04;;;;;;;4.60;4.30;;;;;;;-0.23;100.00;97310.97;4947281;28;20721;-57
2022/04/18 05:16:32;;;;;;;4.67;4.27;;;;;;;-0.13;100.00;97307.69;4945316;28;20520;-58
2022/04/18 05:19:02;;;;;;;4.13;3.77;;;;;;;-0.02;100.00;97310.31;4945838;28;20374;-59
2022/04/18 05:21:30;;;;;;;3.60;3.30;;;;;;;0.10;100.00;97309.41;4906047;28;21329;-61
2022/04/18 05:23:59;;;;;;;3.50;3.13;;;;;;;0.21;100.00;97313.81;4946060;28;22730;-57
2022/04/18 05:26:27;;;;;;;4.80;3.97;;;;;;;0.38;100.00;97316.91;4934577;28;20210;-60
2022/04/18 05:28:55;;;;;;;4.10;3.53;;;;;;;0.53;100.00;97317.53;4946926;28;20302;-59
2022/04/18 05:31:23;;;;;;;4.40;4.00;;;;;;;0.75;100.00;97323.69;4943748;28;20726;-58
2022/04/18 05:33:51;;;;;;;4.57;4.27;;;;;;;0.95;100.00;97324.78;4941157;28;20203;-58
2022/04/18 05:36:21;;;;;;;5.33;4.03;;;;;;;1.22;100.00;97320.94;4944589;28;20226;-59
2022/04/18 05:38:49;;;;;;;4.73;4.13;;;;;;;1.42;100.00;97325.41;4909084;28;20210;-59
2022/04/18 05:41:17;;;;;;;4.93;4.47;;;;;;;1.64;100.00;97325.47;4941510;28;20225;-58
2022/04/18 05:43:46;;;;;;;5.03;4.50;;;;;;;1.78;100.00;97316.50;4938977;28;20583;-57
2022/04/18 05:46:14;;;;;;;4.83;4.33;;;;;;;1.99;100.00;97321.75;4948201;28;20293;-60
2022/04/18 05:48:42;;;;;;;4.17;3.77;;;;;;;2.15;100.00;97323.94;4946769;28;20341;-55
2022/04/18 05:51:10;;;;;;;4.33;4.03;;;;;;;2.32;100.00;97319.91;4944794;28;20333;-56
2022/04/18 05:53:40;;;;;;;3.67;3.37;;;;;;;2.51;100.00;97328.81;4911811;28;20713;-58
2022/04/18 05:56:08;;;;;;;5.17;3.47;;;;;;;2.65;100.00;97319.78;4946495;28;20206;-58
2022/04/18 05:58:36;;;;;;;4.30;3.90;;;;;;;2.80;100.00;97317.66;4931751;28;20786;-59
2022/04/18 06:01:04;;;;;;;4.80;4.40;;;;;;;2.92;100.00;97323.63;4945420;28;20314;-57
2022/04/18 06:03:32;;;;;;;4.30;4.00;;;;;;;3.07;100.00;97319.69;4941574;28;20416;-60
2022/04/18 06:06:01;;;;;;;4.80;4.30;;;;;;;3.33;100.00;97321.81;4945507;28;20258;-59
2022/04/18 06:08:29;;;;;;;4.60;4.20;;;;;;;3.55;100.00;97330.41;4943584;28;20515;-61
2022/04/18 06:10:58;;;;;;;4.53;4.13;;;;;;;3.52;100.00;97321.03;4912283;28;20769;-54
2022/04/18 06:13:27;;;;;;;3.70;3.40;;;;;;;3.71;100.00;97329.88;4933727;28;20305;-57
2022/04/18 06:15:55;;;;;;;4.43;4.10;;;;;;;3.83;100.00;97330.56;4944840;28;20689;-59
2022/04/18 06:18:23;;;;;;;4.23;3.83;;;;;;;3.87;100.00;97326.69;4941755;28;20234;-61
2022/04/18 06:20:51;;;;;;;4.30;3.90;;;;;;;3.99;100.00;97327.38;4947823;28;20578;-61
2022/04/18 06:23:19;;;;;;;4.03;3.73;;;;;;;4.28;100.00;97329.97;4941312;28;20214;-58
2022/04/18 06:25:48;;;;;;;4.63;3.83;;;;;;;4.29;100.00;97326.38;4909528;28;21210;-61
2022/04/18 06:28:19;;;;;;;5.47;3.73;;;;;;;4.08;100.00;97323.94;4933762;28;20206;-59
2022/04/18 06:30:48;;;;;;;4.20;3.80;;;;;;;4.26;100.00;97318.78;4941258;28;20371;-63
2022/04/18 06:33:16;;;;;;;4.60;4.20;;;;;;;4.49;100.00;97327.16;4946451;28;20261;-58
2022/04/18 06:35:46;;;;;;;4.43;4.03;;;;;;;4.80;100.00;97320.88;4943494;28;20746;-58
2022/04/18 06:38:14;;;;;;;3.77;3.50;;;;;;;5.28;100.00;97320.78;4944794;28;20509;-58
2022/04/18 06:40:42;;;;;;;6.17;3.60;;;;;;;6.39;100.00;97318.88;4942482;28;20967;-55
2022/04/18 06:43:11;;;;;;;4.50;4.10;;;;;;;7.38;88.04;97316.69;4897745;28;20317;-60
2022/04/18 06:45:40;;;;;;;4.20;3.87;;;;;;;8.33;76.22;97312.03;4943842;28;20424;-57
2022/04/18 06:48:08;;;;;;;4.70;4.30;;;;;;;8.61;73.79;97315.16;4943342;28;20214;-60
2022/04/18 06:50:37;;;;;;;4.17;3.83;;;;;;;8.59;67.36;97311.03;4942415;28;20910;-57
2022/04/18 06:53:05;;;;;;;4.27;3.87;;;;;;;9.33;63.08;97309.97;4945475;28;20297;-58
2022/04/18 06:58:15;;;;;;;4.27;3.97;;;;;;;10.34;56.61;97312.56;4910553;28;20252;-58
2022/04/18 07:00:44;;;;;;;4.93;4.43;;;;;;;9.26;61.19;97318.56;4937735;28;20779;-57
2022/04/18 07:03:13;;;;;;;4.00;3.70;;;;;;;8.29;66.61;97311.53;4942292;28;20419;-58
2022/04/18 07:05:41;;;;;;;4.90;4.00;;;;;;;7.78;77.02;97315.16;4938422;28;20447;-55
2022/04/18 07:08:10;;;;;;;4.60;4.00;;;;;;;7.68;78.39;97314.47;4944614;28;20221;-61
2022/04/18 07:10:38;;;;;;;4.73;4.33;;;;;;;7.32;81.19;97307.66;4942640;28;20221;-57
2022/04/18 07:13:10;;;;;;;4.90;4.50;;;;;;;7.51;81.10;97313.59;4911437;28;20466;-60
2022/04/18 07:15:39;;;;;;;4.30;4.00;;;;;;;7.49;81.69;97305.03;4933404;28;20427;-57
2022/04/18 07:18:09;;;;;;;3.57;3.30;;;;;;;7.70;77.84;97311.69;4944805;28;20226;-55
2022/04/18 07:20:38;;;;;;;3.70;3.40;;;;;;;7.78;75.67;97307.25;4939058;28;20547;-57
2022/04/18 07:23:11;;;;;;;3.50;3.20;;;;;;;8.03;75.86;97315.16;4941246;28;20210;-59
2022/04/18 07:25:40;;;;;;;3.70;3.50;;;;;;;8.27;74.49;97305.59;4943130;28;20609;-53
2022/04/18 07:28:08;;;;;;;4.20;3.80;;;;;;;8.30;71.45;97301.78;4946236;28;20225;-55
2022/04/18 07:30:37;;;;;;;3.67;3.37;;;;;;;8.29;73.34;97305.44;4900962;28;20396;-58
2022/04/18 07:33:05;;;;;;;3.97;3.57;;;;;;;8.20;70.16;97312.53;4941861;28;20838;-57
2022/04/18 07:35:35;;;;;;;3.33;3.00;;;;;;;8.45;69.98;97307.22;4944936;28;20324;-56
2022/04/18 07:40:48;;;;;;;3.87;3.57;;;;;;;8.81;62.94;97304.22;4942549;28;20318;-55
2022/04/18 07:43:17;;;;;;;3.67;3.10;;;;;;;8.89;67.94;97300.72;4945177;28;20289;-53
2022/04/18 07:45:45;;;;;;;3.97;3.67;;;;;;;9.00;64.18;97299.53;4901796;28;20530;-54
2022/04/18 07:48:13;;;;;;;4.73;3.37;;;;;;;9.14;61.75;97296.16;4942063;28;20210;-56
2022/04/18 07:53:28;;;;;;;3.63;3.33;;;;;;;9.37;59.93;97287.47;4942992;28;20321;-55
2022/04/18 07:55:56;;;;;;;3.43;3.17;;;;;;;9.44;58.34;97291.06;4944624;28;20207;-56
2022/04/18 07:58:25;;;;;;;3.60;3.40;;;;;;;9.71;61.97;97296.88;4942130;28;20966;-53
2022/04/18 08:00:53;;;;;;;3.47;3.17;;;;;;;9.62;60.69;97289.97;4907517;28;20233;-59
2022/04/18 08:03:21;;;;;;;3.20;2.90;;;;;;;9.72;60.07;97292.38;4940746;28;20878;-57
2022/04/18 08:05:50;;;;;;;3.67;3.30;;;;;;;9.83;55.75;97292.81;4944647;28;20207;-55
2022/04/18 08:08:19;;;;;;;3.40;3.10;;;;;;;9.88;59.21;97294.09;4938516;28;20202;-55
2022/04/18 08:10:47;;;;;;;3.07;2.93;;;;;;;10.05;53.13;97289.50;4945303;28;20606;-53
2022/04/18 08:13:15;;;;;;;3.30;3.10;;;;;;;10.22;52.91;97291.00;4942214;28;20878;-55
2022/04/18 08:15:43;;;;;;;2.73;2.53;;;;;;;10.34;54.68;97294.03;4949908;28;20838;-56
2022/04/18 08:18:11;;;;;;;3.33;3.13;;;;;;;10.52;56.59;97290.28;4913033;28;20780;-56
2022/04/18 08:20:40;;;;;;;3.60;3.40;;;;;;;10.52;54.32;97285.78;4944076;28;20316;-58
2022/04/18 08:23:09;;;;;;;3.50;3.20;;;;;;;10.59;54.55;97280.59;4945980;28;20213;-56
2022/04/18 08:25:37;;;;;;;3.13;2.93;;;;;;;10.69;53.34;97281.13;4947399;28;20254;-57
2022/04/18 08:28:06;;;;;;;5.17;3.40;;;;;;;10.85;52.81;97282.78;4945587;28;20766;-57
2022/04/18 08:30:35;;;;;;;3.20;2.90;;;;;;;10.94;51.87;97277.38;4949699;28;20313;-55
2022/04/18 08:33:03;;;;;;;3.50;3.30;;;;;;;11.07;50.21;97276.75;4906691;28;20221;-57
2022/04/18 08:35:32;;;;;;;2.93;2.80;;;;;;;11.00;49.18;97279.31;4950929;28;20451;-57
2022/04/18 08:38:00;;;;;;;3.37;3.07;;;;;;;11.20;49.13;97278.75;4946978;28;20229;-61
2022/04/18 08:40:30;;;;;;;2.93;2.53;;;;;;;11.32;44.19;97279.91;4946671;28;20324;-53
2022/04/18 08:42:58;;;;;;;3.70;3.30;;;;;;;11.31;45.43;97278.25;4945508;28;20285;-60
2022/04/18 08:45:28;;;;;;;3.53;2.57;;;;;;;11.32;45.07;97274.59;4946833;28;20320;-59
2022/04/18 08:53:30;;;;;;;2.80;2.40;;;;;;;11.01;44.38;97267.72;4945274;28;20213;-56
2022/04/18 08:56:00;;;;;;;2.53;2.33;;;;;;;10.97;43.90;97264.59;4947637;28;20216;-60
2022/04/18 08:58:29;;;;;;;3.03;2.40;;;;;;;11.29;44.46;97270.50;4944538;28;20528;-58
2022/04/18 09:00:59;;;;;;;2.93;2.63;;;;;;;11.09;44.30;97270.25;4945884;28;20232;-58
2022/04/18 09:03:33;;;;;;;2.93;2.63;;;;;;;11.40;45.26;97265.72;4911876;28;20214;-55
2022/04/18 09:06:06;;;;;;;2.57;2.37;;;;;;;11.50;43.79;97266.22;4944750;28;20229;-58
2022/04/18 09:08:36;;;;;;;2.80;2.60;;;;;;;11.61;45.56;97256.13;4945121;28;20785;-57
2022/04/18 09:11:05;;;;;;;2.20;2.10;;;;;;;11.82;45.51;97263.28;4944119;28;20860;-59
2022/04/18 09:13:33;;;;;;;2.70;2.50;;;;;;;11.94;42.71;97250.31;4946509;28;20525;-60
2022/04/18 09:16:04;;;;;;;2.77;2.53;;;;;;;12.09;42.05;97248.44;4950592;28;20305;-57
2022/04/18 09:18:32;;;;;;;1.90;1.77;;;;;;;12.05;41.80;97251.66;4913315;28;20733;-58
2022/04/18 09:21:01;;;;;;;2.40;2.20;;;;;;;12.35;41.21;97246.16;4947820;28;20232;-60
2022/04/18 09:23:30;;;;;;;2.23;2.13;;;;;;;12.44;40.74;97248.47;4944916;28;20408;-56
2022/04/18 09:26:01;;;;;;;2.97;2.10;;;;;;;12.59;39.14;97244.88;4946666;28;20233;-58
2022/04/18 09:28:32;;;;;;;2.10;2.00;;;;;;;12.85;40.02;97240.75;4946316;28;20411;-57
2022/04/18 09:31:04;;;;;;;2.23;2.13;;;;;;;12.88;40.20;97240.34;4943015;28;20325;-58
2022/04/18 09:33:41;;;;;;;2.00;1.80;;;;;;;12.94;38.52;97231.56;4948989;28;20207;-55
2022/04/18 09:36:11;;;;;;;2.80;2.10;;;;;;;13.26;38.72;97231.91;4902795;28;20209;-58
2022/04/18 09:38:43;;;;;;;4.47;1.80;;;;;;;13.59;39.29;97235.69;4945230;28;20230;-60
2022/04/18 09:41:15;;;;;;;2.77;2.43;;;;;;;13.80;37.84;97226.69;4940593;28;20685;-59
2022/04/18 09:43:47;;;;;;;2.00;1.90;;;;;;;14.07;36.04;97221.41;4947717;28;20715;-59
2022/04/18 09:46:16;;;;;;;1.90;1.80;;;;;;;14.38;37.34;97216.44;4942294;28;20217;-55
2022/04/18 09:48:46;;;;;;;1.83;1.73;;;;;;;14.71;35.18;97211.06;4947063;28;20573;-54
2022/04/18 09:51:15;;;;;;;1.30;1.30;;;;;;;14.64;35.77;97218.25;4906253;28;20323;-60
2022/04/18 09:53:45;;;;;;;1.50;1.40;;;;;;;14.89;35.97;97213.06;4945512;28;20214;-55
2022/04/18 09:56:15;;;;;;;1.60;1.50;;;;;;;14.99;35.24;97217.13;4936078;28;20745;-59
2022/04/18 09:58:45;;;;;;;2.53;2.07;;;;;;;15.26;35.30;97211.69;4946192;28;20680;-55
2022/04/18 10:01:33;;;;;;;2.00;1.90;;;;;;;14.69;36.53;97210.44;4946910;28;20211;-57
2022/04/18 10:04:05;;;;;;;2.73;2.23;;;;;;;14.79;37.01;97209.19;4944320;28;20211;-59
2022/04/18 10:06:33;;;;;;;2.23;2.13;;;;;;;14.24;36.88;97213.00;4908692;28;20211;-56
2022/04/18 10:09:02;;;;;;;1.90;1.80;;;;;;;14.53;36.87;97205.53;4942902;28;20214;-56
2022/04/18 10:11:30;;;;;;;2.07;1.87;;;;;;;14.62;36.31;97202.44;4945497;28;20252;-59
2022/04/18 10:14:00;;;;;;;2.13;1.97;;;;;;;14.47;37.52;97200.03;4942456;28;20798;-57
2022/04/18 10:16:28;;;;;;;1.90;1.80;;;;;;;14.12;36.96;97197.63;4942293;28;20369;-58
2022/04/18 10:18:59;;;;;;;2.13;2.03;;;;;;;13.67;37.50;97200.91;4945870;28;20269;-58
2022/04/18 10:21:28;;;;;;;3.13;2.00;;;;;;;13.48;38.43;97199.84;4946363;28;20650;-60
2022/04/18 10:24:34;;;;;;;1.87;1.77;;;;;;;13.23;38.03;97183.56;4911311;28;20210;-57
2022/04/18 10:27:39;;;;;;;2.70;2.43;;;;;;;12.90;38.17;97179.81;4867834;29;20215;-55
2022/04/18 10:30:08;;;;;;;1.73;1.63;;;;;;;12.74;38.66;97181.81;4832294;29;20254;-58
2022/04/18 10:32:38;;;;;;;2.00;1.90;;;;;;;12.49;39.30;97175.31;4872002;29;20665;-58
2022/04/18 10:35:07;;;;;;;2.30;1.53;;;;;;;12.62;39.51;97178.03;4870256;29;20300;-56
2022/04/18 10:37:41;;;;;;;2.03;1.87;;;;;;;12.68;39.01;97171.94;4867383;29;20217;-58
2022/04/18 10:40:10;;;;;;;2.13;1.93;;;;;;;12.70;39.04;97172.59;4832773;29;20483;-56
2022/04/18 10:42:40;;;;;;;1.93;1.83;;;;;;;12.50;38.74;97176.97;4871877;29;20641;-55
2022/04/18 10:45:11;;;;;;;1.80;1.73;;;;;;;12.68;39.18;97163.97;4866712;29;20841;-55
2022/04/18 10:48:05;;;;;;;1.50;1.50;;;;;;;12.66;39.05;97166.00;4872245;29;20297;-54
2022/04/18 10:50:35;;;;;;;1.67;1.57;;;;;;;12.93;38.31;97152.81;4868131;29;20225;-50
2022/04/18 10:53:12;;;;;;;3.20;2.57;;;;;;;13.51;38.48;97164.00;4869126;29;20586;-56
2022/04/18 10:55:42;;;;;;;1.57;1.57;;;;;;;13.53;36.34;97151.31;4833417;29;20682;-58
2022/04/18 10:58:13;;;;;;;2.50;2.10;;;;;;;13.54;37.78;97153.78;4867411;29;20312;-58
2022/04/18 11:00:49;;;;;;;1.70;1.60;;;;;;;13.82;35.70;97151.94;4869941;29;20746;-60
2022/04/18 11:03:44;;;;;;;1.90;1.80;;;;;;;13.94;37.83;97149.50;4910859;28;20605;-56
2022/04/18 11:06:45;;;;;;;1.67;1.57;;;;;;;13.66;37.60;97151.34;4942254;28;20432;-53
2022/04/18 11:09:19;;;;;;;1.83;1.73;;;;;;;13.49;38.60;97152.75;4941673;28;20601;-56
2022/04/18 11:11:48;;;;;;;1.60;1.50;;;;;;;13.56;37.73;97142.94;4902783;28;20349;-52
2022/04/18 11:14:19;;;;;;;2.93;2.20;;;;;;;13.47;37.81;97147.66;4941850;28;20203;-58
2022/04/18 11:16:51;;;;;;;1.67;1.63;;;;;;;13.83;37.85;97150.94;4945664;28;20245;-57
2022/04/18 11:19:22;;;;;;;2.20;2.00;;;;;;;14.07;37.89;97148.66;4942729;28;20387;-56
2022/04/18 11:22:10;;;;;;;2.87;2.10;;;;;;;14.19;35.47;97137.13;4944362;28;20206;-54
2022/04/18 11:24:40;;;;;;;1.90;1.80;;;;;;;14.28;35.66;97136.94;4947023;28;20221;-59
2022/04/18 11:27:10;;;;;;;2.30;1.90;;;;;;;14.59;36.66;97132.75;4909486;28;20582;-57
2022/04/18 11:29:39;;;;;;;1.80;1.70;;;;;;;14.96;36.73;97127.66;4946011;28;20226;-56
2022/04/18 11:32:09;;;;;;;2.47;2.37;;;;;;;15.07;35.59;97131.50;4938098;28;20210;-57
2022/04/18 11:34:37;;;;;;;1.90;1.80;;;;;;;15.02;35.74;97129.50;4945052;28;20222;-53
2022/04/18 11:37:08;;;;;;;1.50;1.40;;;;;;;15.52;35.60;97133.28;4942190;28;20633;-55
2022/04/18 11:39:44;;;;;;;1.67;1.57;;;;;;;15.60;34.92;97129.53;4944672;28;20230;-60
2022/04/18 11:42:16;;;;;;;1.77;1.70;;;;;;;15.51;35.51;97120.13;4906414;28;20885;-57
2022/04/18 11:44:46;;;;;;;2.20;1.93;;;;;;;15.26;34.20;97121.75;4945587;28;20449;-56
2022/04/18 11:47:18;;;;;;;1.80;1.70;;;;;;;15.18;35.62;97122.00;4943057;28;20198;-55
2022/04/18 11:49:46;;;;;;;2.20;2.10;;;;;;;14.65;35.02;97115.06;4947574;28;20305;-53
2022/04/18 11:52:19;;;;;;;1.87;1.80;;;;;;;14.46;36.97;97109.63;4945867;28;20257;-54
2022/04/18 11:54:58;;;;;;;3.53;3.23;;;;;;;14.17;37.87;97107.22;4947032;28;20650;-54
2022/04/18 11:57:27;;;;;;;2.13;1.83;;;;;;;14.22;38.48;97111.94;4909590;28;20214;-56
2022/04/18 11:59:56;;;;;;;4.93;2.10;;;;;;;13.85;38.97;97117.75;4946368;28;20737;-59
2022/04/18 12:08:08;;;;;;;1.77;1.67;;;;;;;15.48;34.91;97092.03;4945346;28;20579;-57
2022/04/18 12:10:40;;;;;;;2.00;1.90;;;;;;;15.55;34.42;97084.78;4945789;28;20230;-53